Dk Ione — 3ETX — position and weather

sailwx.info

Track history (hours):
 
Tides and Currents Weather Stations Pressure Air Temp Water Temp Dewpoint Dewpoint Depression Visibility Wind Speed Wind Dir Waves Ship Positions

Dk Ione

Last reported at 2016-Jun-02 15:33 UTC. Time now 2016-Jun-27 09:41 UTC.
Position N 27°27' W 015°15'.
Warning: this ship's position is 24 days out of date.

Length 196 m; draft 10.8 m.

Type: Cargo ship. MMSI: 353245000.

Date/timePositionNaut miles runAvg speedWind from/ knotsBaromVisibWave heightAir tempDewpointWater temp
2016-Jun-02 15:33N 27°27' W 015°15'1212.6
2016-Jun-02 14:33N 27°39' W 015°14'1313.2
2016-Jun-02 13:33N 27°53' W 015°12'1211.6
2016-Jun-02 12:33N 28°02' W 015°19'7 5.7
2016-Jun-02 11:25N 28°07' W 015°24'0 0.0
2016-Jun-02 10:19N 28°07' W 015°24'0 0.1
2016-Jun-02 09:25N 28°07' W 015°24'0 0.0
2016-Jun-02 08:25N 28°07' W 015°24'0 0.0
2016-Jun-02 07:25N 28°07' W 015°24'0 0.0
2016-Jun-02 06:28N 28°07' W 015°24'0 0.0
2016-Jun-02 05:31N 28°07' W 015°24'0 0.0
2016-Jun-02 04:31N 28°07' W 015°24'0 0.0
2016-Jun-02 03:31N 28°07' W 015°24'0 0.0
2016-Jun-02 02:31N 28°07' W 015°24'0 0.2
2016-Jun-02 01:33N 28°07' W 015°24'8 7.7
2016-Jun-02 00:33N 28°12' W 015°18'1313.1
2016-Jun-01 23:34N 28°23' W 015°09'1313.1
2016-Jun-01 22:33N 28°33' W 014°60'1312.8
2016-Jun-01 21:33N 28°43' W 014°51'1312.7
2016-Jun-01 20:33N 28°54' W 014°43'1312.7
2016-Jun-01 19:33N 29°04' W 014°35'1312.6
2016-Jun-01 18:33N 29°15' W 014°26'1313.1
2016-Jun-01 17:33N 29°25' W 014°17'1312.6
2016-Jun-01 16:33N 29°35' W 014°09'1212.5
2016-Jun-01 15:33N 29°45' W 014°00'1312.9
2016-Jun-01 14:33N 29°53' W 013°49'1312.9
2016-Jun-01 13:33N 30°02' W 013°38'1312.5
2016-Jun-01 12:33N 30°09' W 013°26'1613.0
2016-Jun-01 11:20N 30°20' W 013°12'1112.6
2016-Jun-01 10:28N 30°27' W 013°02'2412.3
2016-Jun-01 08:32N 30°41' W 012°40'12113.0
2016-May-31 23:17N 31°57' W 010°51'1013.1
2016-May-31 22:33N 32°03' W 010°42'6613.1
2016-May-31 17:28N 32°45' W 009°41'  
2016-May-23 16:23N 33°12' W 008°43'  
Track history (hours):
 
Tides and Currents Weather Stations Pressure Air Temp Water Temp Dewpoint Dewpoint Depression Visibility Wind Speed Wind Dir Waves Ship Positions

Dk Ione

Last reported at 2016-Jun-02 15:33 UTC. Time now 2016-Jun-27 09:41 UTC.
Position N 27°27' W 015°15'.
Warning: this ship's position is 24 days out of date.

Length 196 m; draft 10.8 m.

Type: Cargo ship. MMSI: 353245000.

Date/timePositionNaut miles runAvg speedWind from/ knotsBaromVisibWave heightAir tempDewpointWater temp
2016-Jun-02 15:33N 27°27' W 015°15'1212.6
2016-Jun-02 14:33N 27°39' W 015°14'1313.2
2016-Jun-02 13:33N 27°53' W 015°12'1211.6
2016-Jun-02 12:33N 28°02' W 015°19'7 5.7
2016-Jun-02 11:25N 28°07' W 015°24'0 0.0
2016-Jun-02 10:19N 28°07' W 015°24'0 0.1
2016-Jun-02 09:25N 28°07' W 015°24'0 0.0
2016-Jun-02 08:25N 28°07' W 015°24'0 0.0
2016-Jun-02 07:25N 28°07' W 015°24'0 0.0
2016-Jun-02 06:28N 28°07' W 015°24'0 0.0
2016-Jun-02 05:31N 28°07' W 015°24'0 0.0
2016-Jun-02 04:31N 28°07' W 015°24'0 0.0
2016-Jun-02 03:31N 28°07' W 015°24'0 0.0
2016-Jun-02 02:31N 28°07' W 015°24'0 0.2
2016-Jun-02 01:33N 28°07' W 015°24'8 7.7
2016-Jun-02 00:33N 28°12' W 015°18'1313.1
2016-Jun-01 23:34N 28°23' W 015°09'1313.1
2016-Jun-01 22:33N 28°33' W 014°60'1312.8
2016-Jun-01 21:33N 28°43' W 014°51'1312.7
2016-Jun-01 20:33N 28°54' W 014°43'1312.7
2016-Jun-01 19:33N 29°04' W 014°35'1312.6
2016-Jun-01 18:33N 29°15' W 014°26'1313.1
2016-Jun-01 17:33N 29°25' W 014°17'1312.6
2016-Jun-01 16:33N 29°35' W 014°09'1212.5
2016-Jun-01 15:33N 29°45' W 014°00'1312.9
2016-Jun-01 14:33N 29°53' W 013°49'1312.9
2016-Jun-01 13:33N 30°02' W 013°38'1312.5
2016-Jun-01 12:33N 30°09' W 013°26'1613.0
2016-Jun-01 11:20N 30°20' W 013°12'1112.6
2016-Jun-01 10:28N 30°27' W 013°02'2412.3
2016-Jun-01 08:32N 30°41' W 012°40'12113.0
2016-May-31 23:17N 31°57' W 010°51'1013.1
2016-May-31 22:33N 32°03' W 010°42'6613.1
2016-May-31 17:28N 32°45' W 009°41'  
2016-May-23 16:23N 33°12' W 008°43'  

Dump ship's entire track history